createdAt,value
2022-09-06T11:29:51.143Z,5096.00
2022-09-06T11:30:51.158Z,5100.00
2022-09-06T11:32:51.113Z,5100.00
2022-09-06T11:33:51.088Z,5096.00
2022-09-06T11:34:51.077Z,5100.00
2022-09-06T11:35:51.064Z,5108.00
2022-09-06T11:36:51.058Z,5108.00
2022-09-06T11:37:51.055Z,5116.00
2022-09-06T11:38:51.033Z,5136.00
2022-09-06T11:40:51.011Z,5180.00
2022-09-06T11:41:51.026Z,5200.00
2022-09-06T11:42:51.026Z,5224.00
2022-09-06T11:43:50.968Z,5256.00
2022-09-06T11:44:50.964Z,5272.00
2022-09-06T11:45:50.957Z,5304.00
2022-09-06T11:46:51.015Z,5352.00
2022-09-06T11:47:50.951Z,5392.00
2022-09-06T11:48:50.941Z,5428.00
2022-09-06T11:49:50.927Z,5488.00
2022-09-06T11:50:50.919Z,5536.00
2022-09-06T11:51:50.886Z,5588.00
2022-09-06T11:52:50.900Z,5656.00
2022-09-06T11:53:50.875Z,5744.00
2022-09-06T11:54:50.884Z,5824.00
2022-09-06T11:55:50.860Z,5932.00
2022-09-06T11:56:50.847Z,6080.00
2022-09-06T11:57:50.848Z,6216.00
2022-09-06T11:58:50.822Z,6372.00
2022-09-06T11:59:50.810Z,6600.00
2022-09-06T12:00:50.811Z,6856.00
2022-09-06T12:01:50.800Z,7164.00
2022-09-06T12:02:51.147Z,7472.00
2022-09-06T12:04:07.455Z,7644.00
2022-09-06T12:04:50.778Z,7696.00
2022-09-06T12:05:50.765Z,7120.00
2022-09-06T12:06:50.750Z,5320.00
2022-09-06T12:51:55.356Z,22144.00
2022-09-06T12:52:55.308Z,59264.00
2022-09-06T12:53:55.299Z,21024.00
2022-09-06T12:54:55.273Z,77312.00
2022-09-06T12:55:55.250Z,38624.00
2022-09-06T12:56:55.258Z,80384.00
2022-09-06T12:57:55.238Z,73120.00
2022-09-06T12:58:55.227Z,65344.00
2022-09-06T12:59:55.205Z,80192.00
2022-09-06T13:00:55.190Z,79008.00
2022-09-06T13:01:55.229Z,81888.00
2022-09-06T13:02:55.264Z,77984.00
2022-09-06T13:03:55.180Z,75712.00
2022-09-06T13:04:55.149Z,74880.00
2022-09-06T13:05:55.156Z,72896.00
2022-09-06T13:06:55.133Z,73024.00
2022-09-06T13:07:55.116Z,70880.00
2022-09-06T13:08:55.127Z,73376.00
2022-09-06T13:09:55.096Z,76864.00
2022-09-06T13:10:55.096Z,73952.00
2022-09-06T13:11:55.080Z,76064.00
2022-09-06T13:12:55.069Z,76608.00
2022-09-06T13:13:55.080Z,75712.00
2022-09-06T13:14:55.056Z,76864.00
2022-09-06T13:15:55.094Z,75104.00
2022-09-06T13:16:55.045Z,75264.00
2022-09-06T13:17:55.036Z,72608.00
2022-09-06T13:18:55.028Z,72448.00
2022-09-06T13:19:55.017Z,74400.00
2022-09-06T13:20:55.010Z,77696.00
2022-09-06T13:21:54.994Z,78304.00
2022-09-06T13:22:54.995Z,76288.00
2022-09-06T13:23:54.987Z,77376.00
2022-09-06T13:24:54.986Z,79680.00
2022-09-06T13:25:54.960Z,78272.00
2022-09-06T13:26:54.955Z,79232.00
2022-09-06T13:27:54.956Z,81184.00
2022-09-06T13:28:54.971Z,80480.00
2022-09-06T13:29:54.933Z,80864.00
2022-09-06T13:30:54.973Z,77216.00
2022-09-06T13:31:54.926Z,77120.00
2022-09-06T13:32:54.911Z,80064.00
2022-09-06T13:33:54.915Z,81216.00
2022-09-06T13:34:54.907Z,82528.00
2022-09-06T13:35:54.890Z,84800.00
2022-09-06T13:36:54.893Z,82496.00
2022-09-06T13:37:54.886Z,82080.00
2022-09-06T13:38:54.897Z,80512.00
2022-09-06T13:39:54.908Z,76192.00
2022-09-06T13:41:11.672Z,77312.00
2022-09-06T13:41:54.850Z,79264.00
2022-09-06T13:42:54.861Z,76576.00
2022-09-06T13:43:54.850Z,75872.00
2022-09-06T13:44:57.732Z,76800.00
2022-09-06T13:45:54.860Z,76736.00
2022-09-06T13:46:54.829Z,78752.00
2022-09-06T13:48:07.936Z,83456.00
2022-09-06T13:49:47.269Z,15228.00
2022-09-06T13:57:56.445Z,12796.00
2022-09-06T14:00:27.001Z,50208.00
2022-09-06T14:10:20.840Z,11788.00
2022-09-06T14:18:18.263Z,73184.00
2022-09-06T14:19:18.245Z,66784.00
2022-09-06T14:20:18.236Z,65280.00
2022-09-06T14:21:18.215Z,64480.00
2022-09-06T14:22:18.219Z,63424.00
2022-09-06T14:23:18.211Z,39264.00
2022-09-06T14:24:18.210Z,16992.00
2022-09-06T14:25:18.192Z,43424.00
2022-09-06T14:26:18.175Z,65312.00
2022-09-06T14:27:18.175Z,64096.00
2022-09-06T14:28:18.174Z,29376.00
2022-09-06T14:29:18.163Z,24800.00
2022-09-06T14:30:18.155Z,57984.00
2022-09-06T14:31:18.169Z,58624.00
2022-09-06T14:32:21.876Z,64160.00
2022-09-06T14:33:18.144Z,63584.00
2022-09-06T14:34:18.125Z,63200.00
2022-09-06T14:35:18.109Z,59168.00
2022-09-06T14:36:18.101Z,58112.00
2022-09-06T14:37:18.096Z,43072.00
2022-09-06T14:38:18.112Z,39264.00
2022-09-06T14:39:18.094Z,58912.00
2022-09-06T14:40:18.089Z,44544.00
2022-09-06T14:41:18.082Z,15984.00
2022-09-06T14:45:45.838Z,53536.00
2022-09-06T14:48:19.839Z,57856.00
2022-09-06T14:49:19.722Z,58208.00
2022-09-06T14:50:19.722Z,28032.00
2022-09-06T14:51:19.705Z,57312.00
2022-09-06T14:52:19.700Z,54624.00
2022-09-06T14:53:39.237Z,53888.00
2022-09-06T14:54:55.001Z,35360.00
2022-09-06T14:55:55.017Z,50304.00
2022-09-06T14:56:55.007Z,15664.00
2022-09-06T14:57:54.980Z,41088.00
2022-09-06T14:58:55.002Z,50432.00
2022-09-06T14:59:54.981Z,49760.00
2022-09-06T15:00:54.971Z,50624.00
2022-09-06T15:01:55.164Z,43872.00
2022-09-06T15:02:55.048Z,45728.00
2022-09-06T15:03:54.967Z,48864.00
2022-09-06T15:04:54.959Z,44352.00
2022-09-06T15:05:54.949Z,53024.00
2022-09-06T15:06:54.940Z,52544.00
2022-09-06T15:11:11.163Z,31008.00
2022-09-06T15:12:28.396Z,25216.00
2022-09-06T15:13:28.528Z,11136.00
2022-09-06T15:14:28.385Z,7580.00
2022-09-06T15:15:28.399Z,7008.00
2022-09-06T15:16:28.370Z,6704.00
2022-09-06T15:17:28.356Z,6412.00
2022-09-06T16:06:33.043Z,25504.00
2022-09-06T16:07:03.086Z,26336.00
2022-09-06T16:08:03.076Z,21984.00
2022-09-06T16:09:03.086Z,21984.00
2022-09-06T16:10:03.055Z,16768.00
2022-09-06T16:11:10.711Z,20896.00
2022-09-06T16:12:10.697Z,16544.00
2022-09-06T16:13:10.688Z,12584.00
2022-09-06T16:14:10.680Z,10304.00
2022-09-06T16:15:10.670Z,7340.00
2022-09-06T16:16:10.662Z,13160.00
2022-09-06T16:17:10.687Z,17408.00
2022-09-06T16:18:10.643Z,21376.00
2022-09-06T16:19:10.654Z,21344.00
2022-09-06T16:20:10.616Z,23360.00
2022-09-06T16:21:10.608Z,23168.00
2022-09-06T16:22:10.600Z,22624.00
2022-09-06T16:23:10.589Z,22208.00
2022-09-06T16:24:10.602Z,20192.00
2022-09-06T16:25:10.590Z,21728.00
2022-09-06T16:26:10.573Z,20704.00
2022-09-06T16:27:10.568Z,20064.00
2022-09-06T16:28:10.561Z,17888.00
2022-09-06T16:29:58.923Z,13536.00
2022-09-06T16:30:58.995Z,8948.00
2022-09-06T16:32:51.825Z,11016.00
2022-09-06T16:33:51.814Z,9088.00
